CheckWX is a tool to help pilots better visualize weather data.  It is not intended as a substitute for an official pre-flight weather briefing.

11:02:29 UTC

KMWT METAR
Mount Ida Airport
Mount Ida, Arkansas, USA
Current

1 hour ago

KMWT 260953Z AUTO 00000KT 10SM BKN027 OVC080 04/03 A3003 RMK AO2 SLP175 T00390033
Observed
Feb-26 @ 09:53 UTC
Visibility
10 SM
Flight Rules
MVFR
Cloud Levels
  • Broken at 2,700' AGL
  • Overcast at 8,000' AGL
Temperature
C / 39°F
Dewpoint
C / 37°F
Humidity
93%
Altimeter
30.03" Hg
Pressure
1016.92 hPa
Previous

2 hours ago

KMWT 260853Z AUTO 00000KT 10SM OVC075 04/03 A3003 RMK AO2 SLP174 T00440028 57001
Observed
Feb-26 @ 08:53 UTC
Visibility
10 SM
Flight Rules
VFR
Cloud Levels
  • Overcast at 7,500' AGL
Temperature
C / 39°F
Dewpoint
C / 37°F
Humidity
93%
Altimeter
30.03" Hg
Pressure
1016.92 hPa
Previous

3 hours ago

KMWT 260753Z AUTO 00000KT 10SM BKN036 OVC075 05/03 A3003 RMK AO2 SLP173 T00500033
Observed
Feb-26 @ 07:53 UTC
Visibility
10 SM
Flight Rules
VFR
Cloud Levels
  • Broken at 3,600' AGL
  • Overcast at 7,500' AGL
Temperature
C / 41°F
Dewpoint
C / 37°F
Humidity
87%
Altimeter
30.03" Hg
Pressure
1016.92 hPa